createdAt,value
2018-04-09T00:07:22.303Z,46.7
2018-04-09T00:17:36.822Z,47.0
2018-04-09T00:27:50.795Z,46.8
2018-04-09T00:38:36.460Z,46.8
2018-04-09T00:48:49.635Z,46.8
2018-04-09T00:59:03.914Z,47.0
2018-04-09T01:09:45.420Z,46.9
2018-04-09T01:19:59.537Z,46.9
2018-04-09T01:30:12.005Z,46.8
2018-04-09T01:40:24.259Z,46.7
2018-04-09T01:50:38.155Z,47.1
2018-04-09T02:00:52.822Z,46.8
2018-04-09T02:11:04.625Z,47.1
2018-04-09T02:21:16.121Z,46.8
2018-04-09T02:31:27.280Z,47.2
2018-04-09T02:42:13.066Z,47.0
2018-04-09T02:52:58.563Z,46.8
2018-04-09T03:03:11.803Z,46.8
2018-04-09T03:13:28.229Z,47.1
2018-04-09T03:23:42.407Z,46.9
2018-04-09T03:33:53.469Z,47.0
2018-04-09T03:44:04.862Z,46.9
2018-04-09T03:54:18.138Z,47.0
2018-04-09T04:04:31.526Z,47.3
2018-04-09T04:14:45.721Z,47.0
2018-04-09T04:25:00.030Z,47.2
2018-04-09T04:35:26.890Z,47.1
2018-04-09T04:45:40.557Z,47.2
2018-04-09T04:55:55.714Z,47.6
2018-04-09T05:06:42.258Z,48.3
2018-04-09T05:16:56.309Z,47.7
2018-04-09T05:27:08.015Z,48.5
2018-04-09T05:37:19.570Z,49.0
2018-04-09T05:47:33.829Z,49.8
2018-04-09T05:57:47.882Z,50.5
2018-04-09T06:08:01.993Z,50.8
2018-04-09T06:18:16.044Z,51.5
2018-04-09T06:28:45.327Z,52.0
2018-04-09T06:39:10.626Z,52.5
2018-04-09T06:49:25.058Z,51.7
2018-04-09T07:00:24.661Z,52.1
2018-04-09T07:11:26.496Z,52.9
2018-04-09T07:22:06.933Z,53.1
2018-04-09T07:33:11.796Z,53.6
2018-04-09T07:44:31.823Z,52.4
2018-04-09T07:54:53.502Z,51.7
2018-04-09T08:05:07.738Z,51.7
2018-04-09T08:15:21.948Z,52.1
2018-04-09T08:25:49.684Z,50.8
2018-04-09T08:36:14.094Z,49.9
2018-04-09T08:46:33.473Z,49.3
2018-04-09T08:57:05.827Z,49.8
2018-04-09T09:07:51.598Z,50.0
2018-04-09T09:18:37.382Z,50.3
2018-04-09T09:28:50.666Z,50.0
2018-04-09T09:39:36.102Z,50.0
2018-04-09T09:49:49.434Z,49.8
2018-04-09T10:00:28.712Z,50.5
2018-04-09T10:10:55.992Z,50.4
2018-04-09T10:21:11.114Z,49.6
2018-04-09T10:31:26.243Z,48.2
2018-04-09T10:41:39.899Z,47.5
2018-04-09T10:51:58.760Z,46.8
2018-04-09T11:02:15.719Z,46.6
2018-04-09T11:13:01.965Z,46.4
2018-04-09T11:23:18.077Z,45.2
2018-04-09T11:33:32.464Z,44.2
2018-04-09T11:44:05.421Z,43.8
2018-04-09T11:54:22.874Z,43.5
2018-04-09T12:16:36.612Z,42.1
2018-04-09T12:27:45.264Z,43.0
2018-04-09T12:38:10.423Z,43.2
2018-04-09T13:19:49.723Z,44.6
2018-04-09T13:30:17.596Z,44.8
2018-04-09T13:51:00.348Z,44.8
2018-04-09T14:01:40.622Z,45.6
2018-04-09T14:11:54.445Z,46.6
2018-04-09T14:22:08.640Z,47.1
2018-04-09T14:32:20.989Z,47.2
2018-04-09T14:42:35.210Z,47.1
2018-04-09T14:52:49.521Z,46.8
2018-04-09T15:03:03.449Z,46.8
2018-04-09T15:13:17.897Z,47.4
2018-04-09T15:24:03.698Z,47.2
2018-04-09T15:35:01.721Z,46.9
2018-04-09T15:45:15.669Z,47.1
2018-04-09T15:55:27.219Z,47.5
2018-04-09T16:06:53.964Z,47.9
2018-04-09T16:17:32.062Z,48.5
2018-04-09T16:27:46.530Z,47.9
2018-04-09T16:38:30.969Z,47.8
2018-04-09T16:49:54.897Z,48.1
2018-04-09T17:11:06.908Z,48.6
2018-04-09T17:21:20.845Z,49.0
2018-04-09T17:32:09.229Z,49.3
2018-04-09T17:42:28.296Z,49.3
2018-04-09T17:52:42.239Z,49.8
2018-04-09T18:03:01.751Z,49.8
2018-04-09T18:13:24.150Z,50.0
2018-04-09T18:24:02.843Z,50.2
2018-04-09T18:34:17.189Z,50.3
2018-04-09T18:44:31.634Z,50.8
2018-04-09T18:54:45.602Z,51.4
2018-04-09T19:05:32.683Z,51.7
2018-04-09T19:18:25.809Z,52.6
2018-04-09T19:32:09.535Z,52.2
2018-04-09T19:42:59.114Z,51.8
2018-04-09T20:10:36.126Z,51.7
2018-04-09T20:21:58.409Z,52.2
2018-04-09T20:32:43.999Z,52.1
2018-04-09T20:42:57.506Z,51.8
2018-04-09T20:53:12.452Z,52.0
2018-04-09T21:03:26.883Z,53.0
2018-04-09T21:13:41.050Z,53.2
2018-04-09T21:23:55.172Z,52.9
2018-04-09T21:34:09.473Z,52.7
2018-04-09T21:44:23.886Z,52.4
2018-04-09T21:54:38.128Z,52.2
2018-04-09T22:04:53.372Z,51.6
2018-04-09T22:15:07.503Z,51.4
2018-04-09T22:25:21.515Z,51.4
2018-04-09T22:35:35.856Z,51.1
2018-04-09T22:45:47.123Z,51.1
2018-04-09T22:56:00.982Z,51.2
2018-04-09T23:06:14.417Z,51.2
2018-04-09T23:16:28.831Z,51.0
2018-04-09T23:26:42.800Z,50.9
2018-04-09T23:36:56.915Z,51.2
2018-04-09T23:47:11.297Z,51.0
2018-04-09T23:57:25.079Z,51.2
